Etusivu
METAR-TAF:

METAR-TAF

Lentoasemat :

Djanet, Algeria

Leveyspiiri: 24-33N, Pituuspiiri: 009-28E, korkeus merenpinnasta: 1054 m

Tämänhetkinen sää

Tämä raportti tehtiin 1 tunti ja 8 minuuttia sitten, kello 04.00 UTC
Tuuli 9 kn lännestä/lounaasta
Lämpötila 17°C
Kosteus 29%
Ilmanpaine 1015 hPa
Näkyvyys: 5000 m

METAR: DAAJ 050400Z 24009KT 5000 NSC 17/M01 Q1015

Aika: 06:08 (05:08 UTC)

Sääennuste

Tämä raportti tehtiin 6 tuntia ja 8 minuuttia sitten, kello 23.00 UTC
Ennuste voimassa 05. päivästä klo 00 UTC - 05. päivään klo 24 UTC
Tuuli 2 kn eri suunnista
Näkyvyys: 6000 m
Todennäköisyys 40%
05. päivästä klo 00 UTC - 05. päivään klo 06 UTC
Näkyvyys: 4000 m
usvaa
Tulossa
05. päivästä klo 09 UTC - 05. päivään klo 12 UTC
Tuuli 12 kn lännestä
Tulossa
05. päivästä klo 18 UTC - 05. päivään klo 21 UTC
Tuuli 12 kn pohjoisesta/koillisesta

TAF: DAAJ 042300Z 0500/0524 VRB02KT 6000 NSC PROB40 0500/0506 4000 HZ BECMG 0509/0512 26012KT BECMG 0518/0521 02012KT

Säähavainnot ja -ennusteet yli 4000 lentoasemalta (METAR- ja TAF-raportit).

Käytössä olevat sääasemat on merkitty karttaan keltaisilla ja punaisilla pisteillä.

Aseta hiiri pisteen päälle nähdäksesi sääaseman nimen.

Klikkaa sitten nähdäksesi säähavainnot ja -ennusteet.

Kartan vaihtaminen: klikkaa mustalla rastilla varustettuja vihreitä pisteitä, niin voit zoomata sisään; viivalla varustettua vihreää pistettä, niin voit zoomata ulos tai vihreitä nuolia, niin pääset viereisille kartoille.


METAR-TAF: